Terminal Aerodrome Forecast
Issued by NWS

Home | Current Version | Previous Version | Text Only | Print | Product List | Glossary On
Versions: 1 2 3 4 5 6 7 8 9 10 11 12 13 14 15 16 17 18 19 20 21 22 23 24 25 26 27
000
FTUS43 KLOT 300520
TAFGYY
TAF
KGYY 300520Z 3006/3106 05009KT P6SM VCSH FEW010 BKN025
      TEMPO 3008/3012 6SM BR OVC010
     FM301500 03010KT P6SM VCSH SCT020 BKN035
     FM302100 03010KT P6SM BKN035
     FM310200 03005KT P6SM SCT040=

USA.gov is the U.S. government's official web portal to all federal, state and local government web resources and services.